createdAt,value
2018-08-18T00:00:05.137Z,17.20
2018-08-18T00:02:39.500Z,17.43
2018-08-18T00:05:13.704Z,16.20
2018-08-18T00:07:47.759Z,15.73
2018-08-18T00:10:21.277Z,16.10
2018-08-18T00:12:50.224Z,15.37
2018-08-18T00:15:19.400Z,22.03
2018-08-18T00:17:48.258Z,17.70
2018-08-18T00:20:20.929Z,15.80
2018-08-18T00:22:49.710Z,17.50
2018-08-18T00:25:18.449Z,26.23
2018-08-18T00:27:47.235Z,17.73
2018-08-18T00:30:21.294Z,16.80
2018-08-18T00:32:50.018Z,21.70
2018-08-18T00:35:18.825Z,15.97
2018-08-18T00:37:47.637Z,18.87
2018-08-18T00:40:16.475Z,18.87
2018-08-18T00:42:45.287Z,17.47
2018-08-18T00:45:14.500Z,16.50
2018-08-18T00:47:43.247Z,19.07
2018-08-18T00:50:16.247Z,21.60
2018-08-18T00:52:45.408Z,20.10
2018-08-18T00:55:14.121Z,18.60
2018-08-18T00:57:42.831Z,16.43
2018-08-18T01:00:11.618Z,19.90
2018-08-18T01:02:40.333Z,17.90
2018-08-18T01:05:09.093Z,19.63
2018-08-18T01:07:37.929Z,25.20
2018-08-18T01:10:06.721Z,20.20
2018-08-18T01:12:37.995Z,21.17
2018-08-18T01:15:13.000Z,17.47
2018-08-18T01:17:45.958Z,20.73
2018-08-18T01:20:19.162Z,17.10
2018-08-18T01:23:00.530Z,21.87
2018-08-18T01:25:36.482Z,20.43
2018-08-18T01:28:10.334Z,19.83
2018-08-18T01:30:51.443Z,19.70
2018-08-18T01:33:24.725Z,21.30
2018-08-18T01:35:59.764Z,21.73
2018-08-18T01:38:33.555Z,23.90
2018-08-18T01:41:15.345Z,26.57
2018-08-18T01:43:51.642Z,25.77
2018-08-18T01:46:23.197Z,22.80
2018-08-18T01:48:56.960Z,24.50
2018-08-18T01:51:30.169Z,20.77
2018-08-18T01:54:03.092Z,22.40
2018-08-18T01:56:36.445Z,23.40
2018-08-18T01:59:12.603Z,29.30
2018-08-18T02:01:50.177Z,23.43
2018-08-18T02:04:23.433Z,24.30
2018-08-18T02:07:02.154Z,22.73
2018-08-18T02:09:37.211Z,25.03
2018-08-18T02:12:11.581Z,26.33
2018-08-18T02:14:47.632Z,29.33
2018-08-18T02:17:30.565Z,24.97
2018-08-18T02:20:04.738Z,21.77
2018-08-18T02:22:37.870Z,22.67
2018-08-18T02:25:10.973Z,26.53
2018-08-18T02:27:44.986Z,23.87
2018-08-18T02:30:24.054Z,21.37
2018-08-18T02:32:59.185Z,24.97
2018-08-18T02:35:33.208Z,28.90
2018-08-18T02:38:08.511Z,29.50
2018-08-18T02:40:45.318Z,31.63
2018-08-18T02:43:24.559Z,24.17
2018-08-18T02:45:59.366Z,25.20
2018-08-18T02:48:32.524Z,20.10
2018-08-18T02:51:06.325Z,26.07
2018-08-18T02:53:39.460Z,37.03
2018-08-18T02:56:13.613Z,26.60
2018-08-18T02:59:18.443Z,28.00
2018-08-18T03:01:52.945Z,22.40
2018-08-18T03:04:28.682Z,27.27
2018-08-18T03:07:01.842Z,27.37
2018-08-18T03:09:38.033Z,29.50
2018-08-18T03:12:09.439Z,24.27
2018-08-18T03:14:43.376Z,23.30
2018-08-18T03:17:14.537Z,26.00
2018-08-18T03:19:46.679Z,24.00
2018-08-18T03:22:19.525Z,21.80
2018-08-18T03:24:51.920Z,26.77
2018-08-18T03:27:24.812Z,27.43
2018-08-18T03:29:57.919Z,23.43
2018-08-18T03:32:30.563Z,31.93
2018-08-18T03:35:03.519Z,27.13
2018-08-18T03:37:36.836Z,23.33
2018-08-18T03:40:09.010Z,23.60
2018-08-18T03:42:44.055Z,22.93
2018-08-18T03:45:16.998Z,25.43
2018-08-18T03:47:50.155Z,22.83
2018-08-18T03:50:24.091Z,27.67
2018-08-18T03:52:57.746Z,22.70
2018-08-18T03:55:39.219Z,21.70
2018-08-18T03:58:11.979Z,26.57
2018-08-18T04:00:46.397Z,23.27
2018-08-18T04:03:19.978Z,24.30
2018-08-18T04:05:53.215Z,24.50
2018-08-18T04:08:27.618Z,23.50
2018-08-18T04:10:59.470Z,26.90
2018-08-18T04:13:32.195Z,24.87
2018-08-18T04:16:08.485Z,25.50
2018-08-18T04:18:40.837Z,25.07
2018-08-18T04:21:13.226Z,27.40
2018-08-18T04:23:45.734Z,26.67
2018-08-18T04:26:19.506Z,27.83
2018-08-18T04:28:51.800Z,24.83
2018-08-18T04:31:29.496Z,31.63
2018-08-18T04:34:02.520Z,22.30
2018-08-18T04:36:34.179Z,28.23
2018-08-18T04:39:09.978Z,29.00
2018-08-18T04:41:41.238Z,30.00
2018-08-18T04:44:15.107Z,26.90
2018-08-18T04:46:45.756Z,36.43
2018-08-18T04:49:16.830Z,31.80
2018-08-18T04:51:47.941Z,31.67
2018-08-18T04:54:20.378Z,23.43
2018-08-18T04:56:52.048Z,29.70
2018-08-18T04:59:25.256Z,28.07
2018-08-18T05:01:58.127Z,26.17
2018-08-18T05:04:30.746Z,27.67
2018-08-18T05:07:03.567Z,27.80
2018-08-18T05:09:36.047Z,29.30
2018-08-18T05:12:08.095Z,26.20
2018-08-18T05:14:40.610Z,32.37
2018-08-18T05:17:16.536Z,27.33
2018-08-18T05:19:55.206Z,28.00
2018-08-18T05:22:28.822Z,24.67
2018-08-18T05:25:02.089Z,24.80
2018-08-18T05:27:34.351Z,28.27
2018-08-18T05:30:08.062Z,24.63
2018-08-18T05:32:39.995Z,29.27
2018-08-18T05:35:13.470Z,25.70
2018-08-18T05:37:53.735Z,27.80
2018-08-18T05:40:26.301Z,28.90
2018-08-18T05:42:59.403Z,31.00
2018-08-18T05:45:33.272Z,36.70
2018-08-18T05:48:06.264Z,26.93
2018-08-18T05:50:40.116Z,34.07
2018-08-18T05:53:23.833Z,32.13
2018-08-18T05:55:56.694Z,29.43
2018-08-18T05:58:31.814Z,29.53
2018-08-18T06:01:08.452Z,40.70
2018-08-18T06:03:40.694Z,27.30
2018-08-18T06:06:12.251Z,35.43
2018-08-18T06:08:44.323Z,28.10
2018-08-18T06:11:13.057Z,32.40
2018-08-18T06:13:41.770Z,27.27
2018-08-18T06:16:12.021Z,27.70
2018-08-18T06:18:41.317Z,27.93
2018-08-18T06:21:10.044Z,25.53
2018-08-18T06:23:39.445Z,34.00
2018-08-18T06:26:08.462Z,36.07
2018-08-18T06:28:37.249Z,37.37
2018-08-18T06:31:06.060Z,29.27
2018-08-18T06:33:34.749Z,28.73
2018-08-18T06:36:04.223Z,31.30
2018-08-18T06:38:33.297Z,30.40
2018-08-18T06:41:03.031Z,26.83
2018-08-18T06:43:33.055Z,20.63
2018-08-18T06:46:02.116Z,26.27
2018-08-18T06:48:33.905Z,25.27
2018-08-18T06:51:02.825Z,32.80
2018-08-18T06:53:37.051Z,34.70
2018-08-18T06:56:06.081Z,28.00
2018-08-18T06:58:34.932Z,29.07
2018-08-18T07:01:03.928Z,25.17
2018-08-18T07:03:39.601Z,25.93
2018-08-18T07:06:10.277Z,29.57
2018-08-18T07:08:44.326Z,23.33
2018-08-18T07:11:13.092Z,25.50
2018-08-18T07:13:42.570Z,21.00
2018-08-18T07:16:11.501Z,23.77
2018-08-18T07:18:40.287Z,26.37
2018-08-18T07:21:09.064Z,25.47
2018-08-18T07:23:37.821Z,29.30
2018-08-18T07:26:07.041Z,29.03
2018-08-18T07:28:35.819Z,35.73
2018-08-18T07:31:04.516Z,22.47
2018-08-18T07:33:33.320Z,21.63
2018-08-18T07:36:02.276Z,26.80
2018-08-18T07:38:31.203Z,25.40
2018-08-18T07:40:59.958Z,20.40
2018-08-18T07:43:31.926Z,24.00
2018-08-18T07:46:02.262Z,16.83
2018-08-18T07:48:31.089Z,27.27
2018-08-18T07:50:59.837Z,24.90
2018-08-18T07:53:28.634Z,22.90
2018-08-18T07:55:57.428Z,25.53
2018-08-18T07:58:26.272Z,25.93
2018-08-18T08:00:57.629Z,18.23
2018-08-18T08:03:26.374Z,22.63
2018-08-18T08:05:55.126Z,23.73
2018-08-18T08:08:23.812Z,20.23
2018-08-18T08:10:58.005Z,20.77
2018-08-18T08:13:26.709Z,16.53
2018-08-18T08:15:55.510Z,20.70
2018-08-18T08:18:24.386Z,19.70
2018-08-18T08:20:53.117Z,23.73
2018-08-18T08:23:21.978Z,21.77
2018-08-18T08:25:50.759Z,22.07
2018-08-18T08:28:19.629Z,15.00
2018-08-18T08:30:48.291Z,18.67
2018-08-18T08:33:31.101Z,15.87
2018-08-18T08:35:59.786Z,16.17
2018-08-18T08:38:38.448Z,18.00
2018-08-18T08:41:09.770Z,14.80
2018-08-18T08:43:38.600Z,18.47
2018-08-18T08:46:07.456Z,22.23
2018-08-18T08:48:36.333Z,15.23
2018-08-18T08:51:05.282Z,17.10
2018-08-18T08:53:34.067Z,18.70
2018-08-18T08:56:02.821Z,15.87
2018-08-18T08:58:32.088Z,18.50
2018-08-18T09:01:00.773Z,22.40
2018-08-18T09:03:29.487Z,23.40
2018-08-18T09:05:58.149Z,20.37
2018-08-18T09:08:26.997Z,20.53
2018-08-18T09:10:55.721Z,13.70
2018-08-18T09:13:24.449Z,21.20
2018-08-18T09:15:53.271Z,21.50
2018-08-18T09:18:22.090Z,13.83
2018-08-18T09:20:50.877Z,18.93
2018-08-18T09:23:19.607Z,13.13
2018-08-18T09:25:48.431Z,15.57
2018-08-18T09:28:17.144Z,17.27
2018-08-18T09:30:46.768Z,18.40
2018-08-18T09:33:15.516Z,19.27
2018-08-18T09:35:55.717Z,16.40
2018-08-18T09:38:24.523Z,23.57
2018-08-18T09:40:53.318Z,22.90
2018-08-18T09:43:23.120Z,14.80
2018-08-18T09:45:52.800Z,15.67
2018-08-18T09:48:21.658Z,13.07
2018-08-18T09:50:50.425Z,10.90
2018-08-18T09:53:19.212Z,15.53
2018-08-18T09:55:47.996Z,17.03
2018-08-18T09:58:16.769Z,20.50
2018-08-18T10:00:45.551Z,17.50
2018-08-18T10:03:14.384Z,12.77
2018-08-18T10:05:43.132Z,15.97
2018-08-18T10:08:11.933Z,15.90
2018-08-18T10:10:40.638Z,21.47
2018-08-18T10:13:09.355Z,13.30
2018-08-18T10:15:38.101Z,15.83
2018-08-18T10:18:06.797Z,13.07
2018-08-18T10:20:39.688Z,14.50
2018-08-18T10:23:10.433Z,15.47
2018-08-18T10:25:39.177Z,12.80
2018-08-18T10:28:07.925Z,10.80
2018-08-18T10:30:36.707Z,18.47
2018-08-18T10:33:05.664Z,15.30
2018-08-18T10:35:34.454Z,17.33
2018-08-18T10:38:04.509Z,13.70
2018-08-18T10:40:33.250Z,13.40
2018-08-18T10:43:02.024Z,18.40
2018-08-18T10:45:30.781Z,13.27
2018-08-18T10:47:59.464Z,15.47
2018-08-18T10:51:38.827Z,10.90
2018-08-18T10:54:07.439Z,8.97
2018-08-18T10:56:36.206Z,10.37
2018-08-18T10:59:19.621Z,11.23
2018-08-18T11:02:03.937Z,9.50
2018-08-18T11:04:34.986Z,12.97
2018-08-18T11:07:04.214Z,12.67
2018-08-18T11:09:33.453Z,10.83
2018-08-18T11:12:02.934Z,8.07
2018-08-18T11:14:31.817Z,10.93
2018-08-18T11:17:00.628Z,11.53
2018-08-18T11:19:29.448Z,9.83
2018-08-18T11:22:09.251Z,10.20
2018-08-18T11:24:38.102Z,12.07
2018-08-18T11:27:06.832Z,12.13
2018-08-18T11:29:35.549Z,10.00
2018-08-18T11:32:05.342Z,8.90
2018-08-18T11:34:33.998Z,8.77
2018-08-18T11:37:06.126Z,11.70
2018-08-18T11:39:34.806Z,11.33
2018-08-18T11:42:03.504Z,9.97
2018-08-18T11:44:32.248Z,8.87
2018-08-18T11:47:01.255Z,9.87
2018-08-18T11:49:30.229Z,7.60
2018-08-18T11:51:58.944Z,10.03
2018-08-18T11:54:27.662Z,9.23
2018-08-18T11:56:56.342Z,9.00
2018-08-18T11:59:25.076Z,6.90
2018-08-18T12:01:55.480Z,9.77
2018-08-18T12:04:24.576Z,14.40
2018-08-18T12:06:58.445Z,7.97
2018-08-18T12:09:27.714Z,8.73
2018-08-18T12:11:56.482Z,8.37
2018-08-18T12:14:25.228Z,9.50
2018-08-18T12:16:53.976Z,7.00
2018-08-18T12:19:22.722Z,13.43
2018-08-18T12:21:51.542Z,18.93
2018-08-18T12:24:21.163Z,9.13
2018-08-18T12:27:01.328Z,8.43
2018-08-18T12:29:31.705Z,15.20
2018-08-18T12:32:00.425Z,8.10
2018-08-18T12:34:29.204Z,11.70
2018-08-18T12:36:58.030Z,11.10
2018-08-18T12:39:26.739Z,7.77
2018-08-18T12:41:55.469Z,8.10
2018-08-18T12:44:31.305Z,10.70
2018-08-18T12:47:02.752Z,6.10
2018-08-18T12:49:32.070Z,6.90
2018-08-18T12:52:00.843Z,7.73
2018-08-18T12:54:29.584Z,10.67
2018-08-18T12:56:58.304Z,9.47
2018-08-18T12:59:26.997Z,8.00
2018-08-18T13:01:55.741Z,11.37
2018-08-18T13:04:24.449Z,7.30
2018-08-18T13:06:54.368Z,6.50
2018-08-18T13:09:28.042Z,10.00
2018-08-18T13:11:58.327Z,6.97
2018-08-18T13:14:28.768Z,6.20
2018-08-18T13:16:57.523Z,7.93
2018-08-18T13:19:29.875Z,11.67
2018-08-18T13:21:58.635Z,8.87
2018-08-18T13:24:29.702Z,14.83
2018-08-18T13:26:59.877Z,13.67
2018-08-18T13:29:28.742Z,6.33
2018-08-18T13:31:57.628Z,6.43
2018-08-18T13:34:26.334Z,6.13
2018-08-18T13:36:55.100Z,7.37
2018-08-18T13:39:23.805Z,6.40
2018-08-18T13:41:52.557Z,7.70
2018-08-18T13:44:29.763Z,6.90
2018-08-18T13:46:58.578Z,7.73
2018-08-18T13:49:27.989Z,8.83
2018-08-18T13:51:56.804Z,7.00
2018-08-18T13:54:25.541Z,10.50
2018-08-18T13:56:54.317Z,8.90
2018-08-18T13:59:54.811Z,6.30
2018-08-18T14:02:23.537Z,6.87
2018-08-18T14:04:53.056Z,6.70
2018-08-18T14:07:21.802Z,6.53
2018-08-18T14:10:05.908Z,6.03
2018-08-18T14:12:34.703Z,9.50
2018-08-18T14:15:03.510Z,15.03
2018-08-18T14:17:32.349Z,10.43
2018-08-18T14:20:01.014Z,6.47
2018-08-18T14:22:29.748Z,8.10
2018-08-18T14:24:58.522Z,8.53
2018-08-18T14:27:27.229Z,9.13
2018-08-18T14:29:55.984Z,7.50
2018-08-18T14:32:27.656Z,7.80
2018-08-18T14:35:11.872Z,6.83
2018-08-18T14:37:42.081Z,7.80
2018-08-18T14:40:15.157Z,6.60
2018-08-18T14:42:44.155Z,7.57
2018-08-18T14:45:15.102Z,6.37
2018-08-18T14:47:44.086Z,7.10
2018-08-18T14:50:27.808Z,7.70
2018-08-18T14:52:56.663Z,10.53
2018-08-18T14:55:25.337Z,8.10
2018-08-18T14:58:01.418Z,14.70
2018-08-18T15:00:30.333Z,8.13
2018-08-18T15:02:59.080Z,5.90
2018-08-18T15:05:27.872Z,7.53
2018-08-18T15:07:57.486Z,7.40
2018-08-18T15:10:37.239Z,8.07
2018-08-18T15:13:06.820Z,6.50
2018-08-18T15:15:36.044Z,8.33
2018-08-18T15:18:06.220Z,7.40
2018-08-18T15:20:36.251Z,13.63
2018-08-18T15:23:06.066Z,8.63
2018-08-18T15:25:35.783Z,7.13
2018-08-18T15:28:05.930Z,9.60
2018-08-18T15:30:35.976Z,7.40
2018-08-18T15:33:04.881Z,7.70
2018-08-18T15:35:36.218Z,6.30
2018-08-18T15:38:05.836Z,6.37
2018-08-18T15:40:34.595Z,9.83
2018-08-18T15:43:03.633Z,9.27
2018-08-18T15:45:32.908Z,7.67
2018-08-18T15:48:03.478Z,10.80
2018-08-18T15:50:32.232Z,9.73
2018-08-18T15:53:00.929Z,9.33
2018-08-18T15:55:29.708Z,8.60
2018-08-18T15:57:58.443Z,7.83
2018-08-18T16:00:34.254Z,8.33
2018-08-18T16:03:03.113Z,6.47
2018-08-18T16:05:32.783Z,6.60
2018-08-18T16:08:01.493Z,6.63
2018-08-18T16:10:30.277Z,10.13
2018-08-18T16:12:58.971Z,8.33
2018-08-18T16:15:27.673Z,7.73
2018-08-18T16:17:56.435Z,9.20
2018-08-18T16:20:27.040Z,16.70
2018-08-18T16:22:57.097Z,8.60
2018-08-18T16:25:35.558Z,10.70
2018-08-18T16:28:05.166Z,8.47
2018-08-18T16:30:34.469Z,6.83
2018-08-18T16:33:14.665Z,7.10
2018-08-18T16:35:44.564Z,10.63
2018-08-18T16:38:13.326Z,6.90
2018-08-18T16:40:42.347Z,6.27
2018-08-18T16:43:13.401Z,6.57
2018-08-18T16:45:42.231Z,6.03
2018-08-18T16:48:12.522Z,13.70
2018-08-18T16:50:41.905Z,6.80
2018-08-18T16:53:11.849Z,8.90
2018-08-18T16:55:41.935Z,7.47
2018-08-18T16:58:10.704Z,5.97
2018-08-18T17:00:55.912Z,6.73
2018-08-18T17:03:31.491Z,7.27
2018-08-18T17:06:01.569Z,9.70
2018-08-18T17:08:30.721Z,7.17
2018-08-18T17:10:59.842Z,6.50
2018-08-18T17:13:31.215Z,7.27
2018-08-18T17:15:59.978Z,8.67
2018-08-18T17:18:28.703Z,7.97
2018-08-18T17:21:01.688Z,7.43
2018-08-18T17:23:32.028Z,6.10
2018-08-18T17:26:00.894Z,7.07
2018-08-18T17:28:30.395Z,6.43
2018-08-18T17:31:01.100Z,5.73
2018-08-18T17:33:29.926Z,10.80
2018-08-18T17:35:58.635Z,10.60
2018-08-18T17:38:27.309Z,6.87
2018-08-18T17:40:56.066Z,7.23
2018-08-18T17:43:24.877Z,8.33
2018-08-18T17:46:03.043Z,6.20
2018-08-18T17:48:38.534Z,6.50
2018-08-18T17:51:07.293Z,7.27
2018-08-18T17:53:36.269Z,8.17
2018-08-18T17:56:05.028Z,5.83
2018-08-18T17:58:33.757Z,6.60
2018-08-18T18:01:02.613Z,9.50
2018-08-18T18:03:31.619Z,9.20
2018-08-18T18:06:00.390Z,7.10
2018-08-18T18:08:29.113Z,16.27
2018-08-18T18:10:58.061Z,8.07
2018-08-18T18:13:28.788Z,9.23
2018-08-18T18:15:57.510Z,8.93
2018-08-18T18:18:46.398Z,7.67
2018-08-18T18:21:15.249Z,9.27
2018-08-18T18:23:43.974Z,9.07
2018-08-18T18:26:12.735Z,8.07
2018-08-18T18:28:41.525Z,12.80
2018-08-18T18:31:10.357Z,8.17
2018-08-18T18:33:39.227Z,9.63
2018-08-18T18:36:08.023Z,8.63
2018-08-18T18:38:57.843Z,13.93
2018-08-18T18:41:26.836Z,8.10
2018-08-18T18:43:59.948Z,11.70
2018-08-18T18:46:28.677Z,10.83
2018-08-18T18:48:57.853Z,7.23
2018-08-18T18:51:26.818Z,8.03
2018-08-18T18:53:57.518Z,12.13
2018-08-18T18:56:26.268Z,10.03
2018-08-18T18:58:55.068Z,10.10
2018-08-18T19:01:30.947Z,9.10
2018-08-18T19:03:59.743Z,9.10
2018-08-18T19:06:28.537Z,7.10
2018-08-18T19:09:00.388Z,7.07
2018-08-18T19:11:29.198Z,7.87
2018-08-18T19:13:58.300Z,8.57
2018-08-18T19:16:27.303Z,18.73
2018-08-18T19:18:56.140Z,7.00
2018-08-18T19:21:30.043Z,11.47
2018-08-18T19:23:58.856Z,15.60
2018-08-18T19:26:36.416Z,14.90
2018-08-18T19:29:05.211Z,10.13
2018-08-18T19:31:35.468Z,7.43
2018-08-18T19:34:10.680Z,8.63
2018-08-18T19:36:53.434Z,9.20
2018-08-18T19:39:23.443Z,12.83
2018-08-18T19:41:52.209Z,22.23
2018-08-18T19:44:20.928Z,10.80
2018-08-18T19:46:49.698Z,10.47
2018-08-18T19:49:29.543Z,10.80
2018-08-18T19:52:02.470Z,12.23
2018-08-18T19:54:31.134Z,9.47
2018-08-18T19:56:59.853Z,10.00
2018-08-18T19:59:28.581Z,9.53
2018-08-18T20:01:57.364Z,11.90
2018-08-18T20:04:31.645Z,9.60
2018-08-18T20:07:00.358Z,18.97
2018-08-18T20:09:29.087Z,15.37
2018-08-18T20:11:58.058Z,10.33
2018-08-18T20:14:26.806Z,10.93
2018-08-18T20:16:55.848Z,12.60
2018-08-18T20:19:24.600Z,9.80
2018-08-18T20:21:53.384Z,9.77
2018-08-18T20:24:22.066Z,12.50
2018-08-18T20:26:50.761Z,13.53
2018-08-18T20:29:19.492Z,12.63
2018-08-18T20:31:59.224Z,9.30
2018-08-18T20:34:28.305Z,10.43
2018-08-18T20:36:57.136Z,10.90
2018-08-18T20:39:28.199Z,9.97
2018-08-18T20:41:57.388Z,8.97
2018-08-18T20:44:29.250Z,11.93
2018-08-18T20:46:58.331Z,16.33
2018-08-18T20:49:27.143Z,9.00
2018-08-18T20:51:55.877Z,15.50
2018-08-18T20:54:24.687Z,8.30
2018-08-18T20:56:53.423Z,10.20
2018-08-18T20:59:22.147Z,15.70
2018-08-18T21:01:50.902Z,8.00
2018-08-18T21:04:19.668Z,15.40
2018-08-18T21:06:48.471Z,12.80
2018-08-18T21:09:28.070Z,8.80
2018-08-18T21:11:56.772Z,9.70
2018-08-18T21:14:29.104Z,10.80
2018-08-18T21:16:57.954Z,20.63
2018-08-18T21:19:27.434Z,11.03
2018-08-18T21:21:56.725Z,15.03
2018-08-18T21:24:25.463Z,13.60
2018-08-18T21:26:54.152Z,14.83
2018-08-18T21:29:23.925Z,10.20
2018-08-18T21:31:52.667Z,11.20
2018-08-18T21:34:21.419Z,8.40
2018-08-18T21:36:50.139Z,13.17
2018-08-18T21:39:18.880Z,9.70
2018-08-18T21:41:48.531Z,10.67
2018-08-18T21:44:17.296Z,15.87
2018-08-18T21:46:46.089Z,9.77
2018-08-18T21:49:14.910Z,20.20
2018-08-18T21:51:43.634Z,15.93
2018-08-18T21:54:12.333Z,11.50
2018-08-18T21:56:42.359Z,9.73
2018-08-18T21:59:12.390Z,14.27
2018-08-18T22:01:41.160Z,14.20
2018-08-18T22:04:10.097Z,14.70
2018-08-18T22:06:39.044Z,8.27
2018-08-18T22:09:20.855Z,11.87
2018-08-18T22:11:49.619Z,10.60
2018-08-18T22:14:18.989Z,19.53
2018-08-18T22:16:52.977Z,8.03
2018-08-18T22:19:22.059Z,11.33
2018-08-18T22:21:50.810Z,13.33
2018-08-18T22:24:19.529Z,12.77
2018-08-18T22:26:48.319Z,9.37
2018-08-18T22:29:17.106Z,11.40
2018-08-18T22:31:45.866Z,13.27
2018-08-18T22:34:14.631Z,10.90
2018-08-18T22:36:43.430Z,10.23
2018-08-18T22:39:12.200Z,10.50
2018-08-18T22:41:42.673Z,58.63
2018-08-18T22:44:11.425Z,13.17
2018-08-18T22:46:40.142Z,10.37
2018-08-18T22:49:08.904Z,10.40
2018-08-18T22:51:37.670Z,8.97
2018-08-18T22:54:06.454Z,14.03
2018-08-18T22:56:37.137Z,11.77
2018-08-18T22:59:07.686Z,10.20
2018-08-18T23:01:37.721Z,9.40
2018-08-18T23:04:24.255Z,18.63
2018-08-18T23:06:53.069Z,12.10
2018-08-18T23:09:21.861Z,8.70
2018-08-18T23:11:50.561Z,9.37
2018-08-18T23:14:19.333Z,12.73
2018-08-18T23:16:48.067Z,8.63
2018-08-18T23:19:16.828Z,8.93
2018-08-18T23:21:45.568Z,11.97
2018-08-18T23:24:28.264Z,10.00
2018-08-18T23:26:57.018Z,10.67
2018-08-18T23:29:25.734Z,10.97
2018-08-18T23:31:54.454Z,10.73
2018-08-18T23:34:23.448Z,12.23
2018-08-18T23:36:52.614Z,8.30
2018-08-18T23:39:21.368Z,11.87
2018-08-18T23:41:58.424Z,10.40
2018-08-18T23:44:27.121Z,9.50
2018-08-18T23:46:55.892Z,13.33
2018-08-18T23:49:24.568Z,10.43
2018-08-18T23:51:53.370Z,10.20
2018-08-18T23:54:24.271Z,11.90
2018-08-18T23:56:53.303Z,8.93
2018-08-18T23:59:22.703Z,13.70
